createdAt,value
2023-10-12T00:00:28.289Z,6.55
2023-10-12T00:03:18.218Z,2.50
2023-10-12T00:05:48.254Z,0.65
2023-10-12T00:08:31.312Z,1.73
2023-10-12T00:10:59.539Z,2.22
2023-10-12T00:13:30.318Z,3.08
2023-10-12T00:16:01.272Z,1.73
2023-10-12T00:18:29.879Z,0.50
2023-10-12T00:21:06.261Z,1.00
2023-10-12T00:23:37.009Z,0.30
2023-10-12T00:26:08.004Z,0.80
2023-10-12T00:28:40.177Z,0.80
2023-10-12T00:31:13.556Z,1.85
2023-10-12T00:33:42.222Z,0.65
2023-10-12T00:36:21.503Z,0.50
2023-10-12T00:38:53.236Z,2.50
2023-10-12T00:41:25.996Z,1.10
2023-10-12T00:44:09.740Z,1.85
2023-10-12T00:47:01.880Z,1.17
2023-10-12T00:49:31.619Z,2.55
2023-10-12T00:52:10.279Z,2.08
2023-10-12T00:54:57.304Z,1.80
2023-10-12T00:57:26.334Z,0.70
2023-10-12T00:59:55.054Z,2.88
2023-10-12T01:02:25.617Z,2.03
2023-10-12T01:04:55.584Z,1.20
2023-10-12T01:10:05.015Z,1.77
2023-10-12T01:12:35.089Z,4.13
2023-10-12T01:15:09.578Z,1.60
2023-10-12T01:17:37.770Z,2.03
2023-10-12T01:20:18.249Z,1.50
2023-10-12T01:22:49.625Z,2.10
2023-10-12T01:25:22.948Z,2.08
2023-10-12T01:27:54.363Z,2.58
2023-10-12T01:30:24.307Z,1.83
2023-10-12T01:32:55.634Z,3.08
2023-10-12T01:35:28.370Z,1.50
2023-10-12T01:38:01.971Z,3.53
2023-10-12T01:40:45.665Z,2.50
2023-10-12T01:43:16.117Z,2.17
2023-10-12T01:45:45.137Z,1.35
2023-10-12T01:48:17.910Z,2.10
2023-10-12T01:50:48.464Z,3.58
2023-10-12T01:53:30.858Z,1.17
2023-10-12T01:56:01.488Z,2.75
2023-10-12T01:58:30.163Z,1.92
2023-10-12T02:01:06.831Z,1.23
2023-10-12T02:03:44.347Z,4.55
2023-10-12T02:06:17.712Z,1.02
2023-10-12T02:08:53.873Z,1.50
2023-10-12T02:11:37.742Z,1.77
2023-10-12T02:14:06.457Z,1.95
2023-10-12T02:16:39.336Z,2.13
2023-10-12T02:19:09.612Z,2.03
2023-10-12T02:21:42.268Z,0.77
2023-10-12T02:24:16.022Z,2.05
2023-10-12T02:26:54.080Z,1.48
2023-10-12T02:29:22.422Z,2.38
2023-10-12T02:32:24.322Z,2.63
2023-10-12T02:34:57.424Z,2.30
2023-10-12T02:37:28.821Z,1.13
2023-10-12T02:39:58.870Z,0.45
2023-10-12T02:42:41.934Z,0.20
2023-10-12T02:45:19.412Z,1.42
2023-10-12T02:47:50.643Z,0.38
2023-10-12T02:50:30.750Z,0.63
2023-10-12T02:53:10.133Z,1.15
2023-10-12T02:55:43.067Z,1.60
2023-10-12T02:58:20.816Z,1.38
2023-10-12T03:00:57.175Z,0.50
2023-10-12T03:03:38.373Z,1.27
2023-10-12T03:06:09.763Z,1.48
2023-10-12T03:09:05.016Z,0.22
2023-10-12T03:11:34.728Z,0.55
2023-10-12T03:14:14.621Z,0.60
2023-10-12T03:16:44.564Z,1.08
2023-10-12T03:19:25.848Z,0.35
2023-10-12T03:22:04.692Z,0.60
2023-10-12T03:27:18.039Z,0.10
2023-10-12T03:29:52.448Z,1.27
2023-10-12T03:32:24.812Z,0.30
2023-10-12T03:34:57.889Z,2.72
2023-10-12T03:37:52.226Z,0.20
2023-10-12T03:40:38.387Z,0.40
2023-10-12T03:43:14.299Z,0.20
2023-10-12T03:46:02.110Z,0.50
2023-10-12T03:48:50.112Z,1.35
2023-10-12T03:51:29.842Z,1.10
2023-10-12T03:54:12.574Z,0.73
2023-10-12T03:56:41.783Z,0.20
2023-10-12T03:59:13.682Z,0.55
2023-10-12T04:01:43.347Z,0.30
2023-10-12T04:04:18.332Z,1.40
2023-10-12T04:07:06.583Z,0.60
2023-10-12T04:09:43.960Z,0.32
2023-10-12T04:12:20.810Z,0.30
2023-10-12T04:14:53.898Z,1.65
2023-10-12T04:17:42.288Z,0.47
2023-10-12T04:20:23.256Z,0.70
2023-10-12T04:23:35.271Z,0.70
2023-10-12T04:26:28.411Z,2.00
2023-10-12T04:28:58.457Z,0.22
2023-10-12T04:31:35.574Z,1.10
2023-10-12T04:34:08.875Z,0.30
2023-10-12T04:36:46.155Z,2.72
2023-10-12T04:39:26.421Z,0.40
2023-10-12T04:42:06.213Z,0.00
2023-10-12T04:44:37.425Z,1.55
2023-10-12T04:47:08.210Z,0.63
2023-10-12T04:49:54.856Z,1.02
2023-10-12T04:52:37.852Z,1.30
2023-10-12T04:55:22.370Z,2.67
2023-10-12T04:58:07.761Z,2.35
2023-10-12T05:00:50.372Z,2.72
2023-10-12T05:03:34.820Z,2.65
2023-10-12T05:06:06.399Z,1.40
2023-10-12T05:08:36.489Z,4.65
2023-10-12T05:11:10.012Z,3.05
2023-10-12T05:13:44.842Z,1.92
2023-10-12T05:16:16.427Z,2.08
2023-10-12T05:18:49.408Z,2.03
2023-10-12T05:21:18.433Z,2.60
2023-10-12T05:23:46.665Z,6.05
2023-10-12T05:26:16.110Z,3.63
2023-10-12T05:28:59.906Z,5.15
2023-10-12T05:31:30.865Z,3.53
2023-10-12T05:34:20.110Z,2.28
2023-10-12T05:36:49.845Z,3.15
2023-10-12T05:39:18.744Z,4.20
2023-10-12T05:41:49.201Z,5.25
2023-10-12T05:44:27.644Z,3.25
2023-10-12T05:47:00.885Z,7.10
2023-10-12T05:49:34.749Z,8.15
2023-10-12T05:52:07.859Z,6.80
2023-10-12T05:54:40.114Z,5.57
2023-10-12T05:57:20.842Z,8.27
2023-10-12T05:59:49.629Z,5.05
2023-10-12T06:02:22.159Z,5.72
2023-10-12T06:04:52.041Z,4.40
2023-10-12T06:07:21.424Z,3.75
2023-10-12T06:09:54.598Z,5.50
2023-10-12T06:12:26.304Z,9.90
2023-10-12T06:14:57.585Z,10.80
2023-10-12T06:17:41.179Z,8.10
2023-10-12T06:20:15.967Z,2.92
2023-10-12T06:22:44.459Z,3.13
2023-10-12T06:25:19.443Z,7.80
2023-10-12T06:27:50.295Z,6.28
2023-10-12T06:30:19.851Z,5.85
2023-10-12T06:32:50.090Z,7.07
2023-10-12T06:35:27.163Z,8.15
2023-10-12T06:38:13.196Z,9.02
2023-10-12T06:40:49.176Z,10.68
2023-10-12T06:43:52.151Z,9.95
2023-10-12T06:46:21.674Z,7.45
2023-10-12T06:48:59.910Z,8.98
2023-10-12T06:51:30.156Z,12.02
2023-10-12T06:54:19.195Z,9.95
2023-10-12T06:56:52.115Z,7.82
2023-10-12T06:59:36.407Z,8.15
2023-10-12T07:02:12.239Z,5.95
2023-10-12T07:04:43.633Z,9.95
2023-10-12T07:07:16.641Z,11.63
2023-10-12T07:09:46.014Z,14.52
2023-10-12T07:12:15.197Z,7.75
2023-10-12T07:14:48.312Z,7.97
2023-10-12T07:17:17.120Z,9.80
2023-10-12T07:19:51.955Z,15.43
2023-10-12T07:22:21.648Z,8.18
2023-10-12T07:24:54.820Z,14.07
2023-10-12T07:27:24.465Z,8.82
2023-10-12T07:32:46.178Z,6.27
2023-10-12T07:35:19.636Z,9.63
2023-10-12T07:37:49.781Z,7.55
2023-10-12T07:40:21.098Z,9.77
2023-10-12T07:42:53.067Z,8.30
2023-10-12T07:45:30.476Z,11.63
2023-10-12T07:48:02.882Z,9.90
2023-10-12T07:50:39.251Z,8.73
2023-10-12T07:53:23.066Z,14.00
2023-10-12T07:55:57.576Z,5.82
2023-10-12T07:58:26.086Z,7.78
2023-10-12T08:01:14.771Z,11.82
2023-10-12T08:03:51.500Z,12.70
2023-10-12T08:06:26.398Z,11.57
2023-10-12T08:09:03.780Z,7.30
2023-10-12T08:11:33.223Z,9.30
2023-10-12T08:14:20.412Z,13.13
2023-10-12T08:17:09.168Z,8.88
2023-10-12T08:19:43.866Z,8.80
2023-10-12T08:22:19.040Z,10.93
2023-10-12T08:24:50.955Z,6.57
2023-10-12T08:27:20.419Z,6.97
2023-10-12T08:30:14.047Z,7.15
2023-10-12T08:32:57.411Z,8.07
2023-10-12T08:35:41.004Z,6.80
2023-10-12T08:38:13.376Z,9.68
2023-10-12T08:41:22.147Z,4.45
2023-10-12T08:43:53.889Z,8.60
2023-10-12T08:46:36.324Z,7.07
2023-10-12T08:49:29.204Z,6.40
2023-10-12T08:52:05.951Z,10.43
2023-10-12T08:54:38.564Z,9.80
2023-10-12T08:57:19.519Z,6.53
2023-10-12T09:00:09.858Z,5.85
2023-10-12T09:02:40.541Z,6.45
2023-10-12T09:05:14.059Z,6.13
2023-10-12T09:07:47.176Z,5.20
2023-10-12T09:10:29.794Z,4.85
2023-10-12T09:13:02.873Z,4.18
2023-10-12T09:15:39.825Z,7.95
2023-10-12T09:18:11.120Z,11.10
2023-10-12T09:20:42.267Z,9.57
2023-10-12T09:23:16.602Z,6.25
2023-10-12T09:26:16.079Z,4.50
2023-10-12T09:29:05.140Z,9.02
2023-10-12T09:34:43.993Z,5.88
2023-10-12T09:37:21.454Z,9.48
2023-10-12T09:39:50.159Z,3.78
2023-10-12T09:42:31.523Z,5.47
2023-10-12T09:45:11.069Z,5.75
2023-10-12T09:47:52.057Z,4.03
2023-10-12T09:50:28.645Z,7.95
2023-10-12T09:53:13.482Z,6.47
2023-10-12T09:56:05.721Z,9.02
2023-10-12T09:58:35.434Z,4.97
2023-10-12T10:01:11.644Z,7.28
2023-10-12T10:03:49.340Z,7.43
2023-10-12T10:06:30.059Z,8.65
2023-10-12T10:09:20.484Z,6.70
2023-10-12T10:11:59.444Z,10.63
2023-10-12T10:14:35.544Z,5.97
2023-10-12T10:17:16.870Z,6.43
2023-10-12T10:19:53.215Z,5.38
2023-10-12T10:22:23.617Z,4.43
2023-10-12T10:24:57.013Z,4.88
2023-10-12T10:27:35.618Z,7.80
2023-10-12T10:30:27.238Z,6.82
2023-10-12T10:33:14.087Z,4.40
2023-10-12T10:36:00.020Z,5.25
2023-10-12T10:38:34.029Z,6.63
2023-10-12T10:41:08.990Z,6.22
2023-10-12T10:43:39.744Z,5.47
2023-10-12T10:46:13.922Z,5.75
2023-10-12T10:51:20.136Z,4.30
2023-10-12T10:53:56.098Z,2.53
2023-10-12T10:56:35.636Z,4.10
2023-10-12T10:59:09.016Z,5.07
2023-10-12T11:01:41.976Z,5.55
2023-10-12T11:04:19.829Z,5.70
2023-10-12T11:06:51.195Z,2.75
2023-10-12T11:09:19.935Z,7.72
2023-10-12T11:12:00.558Z,4.53
2023-10-12T11:14:32.922Z,5.13
2023-10-12T11:17:06.332Z,6.35
2023-10-12T11:19:39.544Z,3.55
2023-10-12T11:22:15.115Z,3.83
2023-10-12T11:24:47.658Z,6.03
2023-10-12T11:27:31.335Z,5.40
2023-10-12T11:30:01.918Z,4.95
2023-10-12T11:32:34.442Z,7.05
2023-10-12T11:35:07.980Z,5.40
2023-10-12T11:37:40.291Z,4.05
2023-10-12T11:40:11.097Z,5.20
2023-10-12T11:42:54.419Z,6.95
2023-10-12T11:45:22.808Z,3.45
2023-10-12T11:47:51.627Z,5.55
2023-10-12T11:50:33.322Z,5.55
2023-10-12T11:53:04.909Z,6.43
2023-10-12T11:55:33.186Z,4.97
2023-10-12T11:58:08.314Z,8.77
2023-10-12T12:00:39.145Z,8.00
2023-10-12T12:03:10.210Z,6.07
2023-10-12T12:05:41.323Z,2.63
2023-10-12T12:08:15.252Z,4.53
2023-10-12T12:10:47.423Z,6.07
2023-10-12T12:13:17.176Z,4.50
2023-10-12T12:15:46.017Z,5.45
2023-10-12T12:18:20.243Z,6.60
2023-10-12T12:20:52.229Z,6.57
2023-10-12T12:23:21.444Z,4.72
2023-10-12T12:25:52.743Z,6.22
2023-10-12T12:28:22.994Z,4.20
2023-10-12T12:30:59.936Z,7.20
2023-10-12T12:33:29.245Z,7.25
2023-10-12T12:36:02.405Z,1.95
2023-10-12T12:38:45.429Z,2.30
2023-10-12T12:41:20.979Z,7.38
2023-10-12T12:43:50.312Z,4.32
2023-10-12T12:46:19.769Z,10.95
2023-10-12T12:48:52.399Z,6.82
2023-10-12T12:51:23.452Z,3.10
2023-10-12T12:53:54.503Z,3.80
2023-10-12T12:56:24.274Z,3.80
2023-10-12T12:58:54.527Z,4.78
2023-10-12T13:01:25.680Z,7.32
2023-10-12T13:03:56.748Z,6.03
2023-10-12T13:06:27.086Z,3.38
2023-10-12T13:08:55.711Z,8.85
2023-10-12T13:11:24.293Z,8.55
2023-10-12T13:13:52.997Z,3.53
2023-10-12T13:16:21.380Z,4.27
2023-10-12T13:18:50.547Z,6.68
2023-10-12T13:21:23.677Z,3.45
2023-10-12T13:23:54.380Z,3.55
2023-10-12T13:26:24.637Z,7.57
2023-10-12T13:28:53.658Z,2.40
2023-10-12T13:31:24.570Z,4.40
2023-10-12T13:33:53.437Z,5.53
2023-10-12T13:36:22.243Z,1.92
2023-10-12T13:38:50.734Z,4.10
2023-10-12T13:41:22.253Z,2.20
2023-10-12T13:43:50.850Z,5.95
2023-10-12T13:46:19.503Z,4.57
2023-10-12T13:48:50.541Z,6.10
2023-10-12T13:51:22.012Z,4.15
2023-10-12T13:53:53.582Z,4.95
2023-10-12T13:56:25.828Z,4.47
2023-10-12T13:58:59.674Z,3.38
2023-10-12T14:01:35.175Z,3.90
2023-10-12T14:04:24.037Z,3.70
2023-10-12T14:06:54.481Z,2.85
2023-10-12T14:09:29.117Z,5.63
2023-10-12T14:12:00.525Z,5.75
2023-10-12T14:14:30.290Z,7.45
2023-10-12T14:16:59.009Z,5.78
2023-10-12T14:19:29.142Z,4.25
2023-10-12T14:22:00.262Z,6.93
2023-10-12T14:24:35.360Z,2.95
2023-10-12T14:27:07.912Z,4.85
2023-10-12T14:29:38.093Z,7.00
2023-10-12T14:32:06.544Z,8.35
2023-10-12T14:34:35.423Z,5.47
2023-10-12T14:37:04.531Z,5.38
2023-10-12T14:42:01.615Z,5.60
2023-10-12T14:44:31.899Z,4.35
2023-10-12T14:47:00.771Z,5.75
2023-10-12T14:49:32.049Z,8.43
2023-10-12T14:52:01.043Z,7.55
2023-10-12T14:54:29.804Z,4.15
2023-10-12T14:56:57.989Z,3.15
2023-10-12T14:59:26.541Z,4.83
2023-10-12T15:01:57.038Z,4.18
2023-10-12T15:04:29.138Z,4.65
2023-10-12T15:06:57.637Z,3.65
2023-10-12T15:09:28.755Z,4.60
2023-10-12T15:11:57.794Z,7.78
2023-10-12T15:16:55.845Z,3.58
2023-10-12T15:19:24.693Z,2.40
2023-10-12T15:21:55.339Z,4.25
2023-10-12T15:24:24.240Z,6.70
2023-10-12T15:26:52.508Z,4.55
2023-10-12T15:29:21.252Z,3.13
2023-10-12T15:31:49.770Z,3.30
2023-10-12T15:34:19.940Z,8.40
2023-10-12T15:36:48.233Z,9.48
2023-10-12T15:39:19.802Z,8.68
2023-10-12T15:41:49.597Z,6.63
2023-10-12T15:44:18.138Z,5.53
2023-10-12T15:46:47.231Z,4.50
2023-10-12T15:51:45.656Z,7.63
2023-10-12T15:54:15.722Z,8.73
2023-10-12T15:56:45.169Z,6.80
2023-10-12T15:59:14.044Z,7.20
2023-10-12T16:01:42.791Z,6.82
2023-10-12T16:04:11.947Z,7.80
2023-10-12T16:06:40.252Z,9.73
2023-10-12T16:09:14.095Z,10.00
2023-10-12T16:11:42.530Z,6.63
2023-10-12T16:14:11.257Z,7.32
2023-10-12T16:16:39.845Z,9.33
2023-10-12T16:19:08.489Z,11.82
2023-10-12T16:21:37.520Z,9.15
2023-10-12T16:24:07.836Z,11.30
2023-10-12T16:26:38.492Z,8.50
2023-10-12T16:29:08.708Z,15.45
2023-10-12T16:31:37.289Z,13.40
2023-10-12T16:34:08.156Z,8.75
2023-10-12T16:36:37.213Z,9.20
2023-10-12T16:39:07.985Z,10.88
2023-10-12T16:41:38.822Z,9.20
2023-10-12T16:44:07.588Z,10.05
2023-10-12T16:46:35.837Z,12.80
2023-10-12T16:49:08.195Z,14.68
2023-10-12T16:51:36.678Z,17.13
2023-10-12T16:54:11.743Z,14.95
2023-10-12T16:56:44.870Z,11.23
2023-10-12T16:59:14.247Z,6.57
2023-10-12T17:01:42.553Z,15.35
2023-10-12T17:04:20.367Z,6.82
2023-10-12T17:06:50.378Z,10.13
2023-10-12T17:09:19.739Z,12.90
2023-10-12T17:11:51.426Z,11.25
2023-10-12T17:14:20.837Z,10.80
2023-10-12T17:16:51.966Z,8.60
2023-10-12T17:19:21.360Z,11.40
2023-10-12T17:21:50.091Z,5.90
2023-10-12T17:24:19.698Z,5.75
2023-10-12T17:26:52.259Z,8.20
2023-10-12T17:29:21.364Z,11.50
2023-10-12T17:31:49.814Z,8.32
2023-10-12T17:34:20.288Z,11.07
2023-10-12T17:36:48.889Z,8.73
2023-10-12T17:39:21.836Z,9.27
2023-10-12T17:41:52.478Z,5.68
2023-10-12T17:44:21.238Z,7.85
2023-10-12T17:46:50.124Z,10.07
2023-10-12T17:49:20.041Z,4.53
2023-10-12T17:51:50.360Z,7.50
2023-10-12T17:54:20.364Z,8.13
2023-10-12T17:56:50.446Z,10.35
2023-10-12T17:59:20.702Z,6.57
2023-10-12T18:01:49.640Z,8.90
2023-10-12T18:04:19.652Z,6.93
2023-10-12T18:06:48.264Z,10.98
2023-10-12T18:09:18.763Z,6.57
2023-10-12T18:11:48.273Z,8.45
2023-10-12T18:14:19.177Z,9.48
2023-10-12T18:16:50.451Z,9.05
2023-10-12T18:19:19.523Z,10.98
2023-10-12T18:21:48.730Z,6.43
2023-10-12T18:24:20.482Z,12.07
2023-10-12T18:26:48.992Z,8.02
2023-10-12T18:29:18.025Z,8.45
2023-10-12T18:31:50.750Z,9.07
2023-10-12T18:34:25.374Z,8.15
2023-10-12T18:37:05.853Z,8.90
2023-10-12T18:39:39.547Z,14.07
2023-10-12T18:44:37.700Z,8.95
2023-10-12T18:47:06.158Z,11.15
2023-10-12T18:49:38.629Z,5.60
2023-10-12T18:52:07.422Z,9.13
2023-10-12T18:54:36.059Z,7.93
2023-10-12T18:57:06.906Z,5.22
2023-10-12T18:59:36.776Z,8.75
2023-10-12T19:02:06.547Z,13.45
2023-10-12T19:04:36.548Z,10.25
2023-10-12T19:07:05.217Z,10.70
2023-10-12T19:09:33.851Z,16.02
2023-10-12T19:12:02.108Z,10.27
2023-10-12T19:14:34.275Z,11.18
2023-10-12T19:17:06.246Z,8.23
2023-10-12T19:19:36.410Z,14.05
2023-10-12T19:22:05.008Z,8.70
2023-10-12T19:24:34.857Z,9.55
2023-10-12T19:27:04.318Z,13.82
2023-10-12T19:29:34.907Z,7.75
2023-10-12T19:32:04.272Z,5.75
2023-10-12T19:34:34.607Z,9.88
2023-10-12T19:37:05.054Z,14.27
2023-10-12T19:39:33.740Z,10.38
2023-10-12T19:42:02.568Z,12.73
2023-10-12T19:44:32.440Z,8.82
2023-10-12T19:47:01.629Z,13.48
2023-10-12T19:51:58.831Z,7.53
2023-10-12T19:54:28.927Z,8.93
2023-10-12T19:56:57.390Z,10.20
2023-10-12T19:59:30.227Z,13.45
2023-10-12T20:01:59.394Z,9.70
2023-10-12T20:04:28.858Z,13.80
2023-10-12T20:06:57.277Z,9.18
2023-10-12T20:09:29.823Z,6.40
2023-10-12T20:11:59.684Z,5.55
2023-10-12T20:14:28.954Z,13.30
2023-10-12T20:16:57.322Z,8.02
2023-10-12T20:19:26.618Z,11.68
2023-10-12T20:21:55.394Z,8.40
2023-10-12T20:24:24.107Z,8.40
2023-10-12T20:26:52.594Z,7.97
2023-10-12T20:29:24.565Z,14.80
2023-10-12T20:31:52.998Z,12.30
2023-10-12T20:34:22.109Z,10.60
2023-10-12T20:36:51.460Z,8.27
2023-10-12T20:39:25.163Z,6.07
2023-10-12T20:41:53.896Z,8.80
2023-10-12T20:44:24.347Z,11.15
2023-10-12T20:46:53.153Z,9.45
2023-10-12T20:49:22.580Z,9.02
2023-10-12T20:51:52.396Z,7.80
2023-10-12T20:56:51.253Z,12.07
2023-10-12T20:59:27.305Z,13.03
2023-10-12T21:02:05.799Z,9.32
2023-10-12T21:04:34.676Z,8.73
2023-10-12T21:07:05.612Z,4.72
2023-10-12T21:09:35.359Z,13.43
2023-10-12T21:12:15.616Z,13.90
2023-10-12T21:14:44.744Z,15.57
2023-10-12T21:17:33.425Z,9.93
2023-10-12T21:20:14.621Z,7.70
2023-10-12T21:22:42.992Z,11.48
2023-10-12T21:25:14.651Z,10.85
2023-10-12T21:27:46.734Z,7.88
2023-10-12T21:30:17.628Z,9.73
2023-10-12T21:32:47.485Z,8.45
2023-10-12T21:35:22.825Z,9.20
2023-10-12T21:37:51.279Z,10.15
2023-10-12T21:40:40.291Z,13.85
2023-10-12T21:43:10.787Z,10.15
2023-10-12T21:45:49.270Z,8.43
2023-10-12T21:48:20.735Z,15.88
2023-10-12T21:50:49.335Z,6.50
2023-10-12T21:53:17.719Z,11.10
2023-10-12T21:55:46.367Z,14.63
2023-10-12T21:58:14.792Z,12.18
2023-10-12T22:00:58.417Z,8.57
2023-10-12T22:03:31.117Z,10.82
2023-10-12T22:06:00.773Z,10.18
2023-10-12T22:08:29.052Z,7.43
2023-10-12T22:11:00.368Z,13.73
2023-10-12T22:13:38.847Z,14.27
2023-10-12T22:16:12.116Z,8.48
2023-10-12T22:18:43.240Z,8.75
2023-10-12T22:21:12.326Z,8.55
2023-10-12T22:23:40.619Z,10.35
2023-10-12T22:26:09.930Z,15.05
2023-10-12T22:28:38.191Z,11.18
2023-10-12T22:31:09.212Z,9.68
2023-10-12T22:33:37.722Z,11.00
2023-10-12T22:36:09.342Z,11.65
2023-10-12T22:38:37.582Z,4.93
2023-10-12T22:41:06.338Z,7.60
2023-10-12T22:43:36.536Z,15.50
2023-10-12T22:46:05.728Z,12.35
2023-10-12T22:48:34.073Z,11.30
2023-10-12T22:51:02.779Z,6.37
2023-10-12T22:53:33.564Z,12.23
2023-10-12T22:56:02.163Z,12.10
2023-10-12T22:58:30.446Z,13.93
2023-10-12T23:01:01.624Z,13.48
2023-10-12T23:03:31.814Z,8.85
2023-10-12T23:06:00.535Z,7.22
2023-10-12T23:08:30.186Z,3.65
2023-10-12T23:11:15.575Z,6.57
2023-10-12T23:13:48.754Z,10.30
2023-10-12T23:16:23.766Z,11.57
2023-10-12T23:18:56.199Z,10.60
2023-10-12T23:21:33.636Z,9.10
2023-10-12T23:24:13.076Z,12.18
2023-10-12T23:26:43.750Z,6.05
2023-10-12T23:29:12.033Z,8.10
2023-10-12T23:31:44.096Z,9.90
2023-10-12T23:34:25.928Z,11.75
2023-10-12T23:36:59.549Z,10.27
2023-10-12T23:39:37.197Z,16.13
2023-10-12T23:42:09.023Z,14.13
2023-10-12T23:44:54.682Z,9.25
2023-10-12T23:47:41.146Z,5.28
2023-10-12T23:50:30.284Z,15.15
2023-10-12T23:52:58.938Z,13.25
2023-10-12T23:55:35.698Z,6.20
2023-10-12T23:58:08.377Z,8.38
